createdAt,value
2019-04-14T00:02:36.223Z,39.00
2019-04-14T00:05:06.418Z,38.53
2019-04-14T00:07:32.571Z,38.57
2019-04-14T00:09:58.755Z,37.77
2019-04-14T00:12:25.175Z,36.37
2019-04-14T00:14:53.416Z,38.47
2019-04-14T00:17:19.773Z,38.13
2019-04-14T00:19:45.992Z,39.57
2019-04-14T00:22:12.402Z,38.67
2019-04-14T00:24:40.256Z,38.70
2019-04-14T00:27:06.934Z,39.73
2019-04-14T00:29:33.238Z,39.37
2019-04-14T00:32:00.637Z,38.23
2019-04-14T00:34:36.146Z,38.67
2019-04-14T00:37:21.064Z,39.57
2019-04-14T00:39:53.230Z,40.40
2019-04-14T00:42:39.379Z,41.50
2019-04-14T00:45:09.267Z,40.47
2019-04-14T00:47:49.750Z,37.70
2019-04-14T00:50:05.885Z,39.67
2019-04-14T00:52:32.162Z,40.40
2019-04-14T00:54:58.679Z,41.23
2019-04-14T00:57:26.849Z,41.00
2019-04-14T00:59:53.156Z,41.70
2019-04-14T01:02:19.234Z,42.37
2019-04-14T01:04:45.431Z,39.93
2019-04-14T01:07:12.962Z,41.57
2019-04-14T01:09:39.171Z,41.30
2019-04-14T01:12:06.059Z,41.97
2019-04-14T01:14:32.299Z,41.03
2019-04-14T01:16:58.497Z,39.83
2019-04-14T01:19:24.627Z,40.90
2019-04-14T01:21:52.508Z,41.33
2019-04-14T01:24:18.881Z,38.87
2019-04-14T01:26:46.287Z,40.20
2019-04-14T01:29:12.556Z,38.57
2019-04-14T01:31:38.669Z,38.90
2019-04-14T01:34:04.858Z,39.60
2019-04-14T01:36:32.031Z,39.03
2019-04-14T01:38:58.220Z,39.00
2019-04-14T01:41:24.506Z,37.97
2019-04-14T01:43:51.644Z,40.33
2019-04-14T01:46:23.289Z,39.50
2019-04-14T01:48:45.920Z,38.67
2019-04-14T01:51:30.953Z,37.97
2019-04-14T01:53:59.607Z,38.73
2019-04-14T01:56:34.127Z,38.53
2019-04-14T01:59:02.252Z,38.73
2019-04-14T02:01:36.746Z,38.73
2019-04-14T02:04:03.214Z,38.33
2019-04-14T02:06:29.309Z,38.30
2019-04-14T02:08:56.737Z,35.73
2019-04-14T02:11:23.083Z,37.10
2019-04-14T02:13:49.172Z,36.57
2019-04-14T02:16:25.994Z,37.43
2019-04-14T02:18:44.794Z,34.67
2019-04-14T02:21:12.729Z,35.10
2019-04-14T02:23:39.114Z,36.10
2019-04-14T02:26:05.305Z,34.40
2019-04-14T02:28:31.534Z,36.67
2019-04-14T02:31:10.237Z,35.77
2019-04-14T02:33:50.349Z,35.27
2019-04-14T02:38:57.337Z,34.33
2019-04-14T02:41:30.052Z,35.43
2019-04-14T02:43:48.218Z,33.23
2019-04-14T02:46:13.881Z,32.43
2019-04-14T02:48:53.333Z,34.60
2019-04-14T02:51:15.930Z,33.20
2019-04-14T02:56:16.555Z,31.30
2019-04-14T03:01:07.575Z,33.30
2019-04-14T03:03:33.989Z,32.33
2019-04-14T03:06:01.545Z,33.23
2019-04-14T03:08:36.365Z,35.13
2019-04-14T03:10:53.699Z,33.03
2019-04-14T03:15:58.735Z,33.00
2019-04-14T03:26:15.610Z,30.53
2019-04-14T03:28:46.330Z,30.87
2019-04-14T03:31:38.960Z,31.00
2019-04-14T03:38:40.285Z,32.60
2019-04-14T03:43:36.775Z,33.07
2019-04-14T03:46:12.122Z,32.63
2019-04-14T03:51:06.772Z,30.80
2019-04-14T03:53:30.507Z,32.40
2019-04-14T03:55:56.646Z,30.87
2019-04-14T03:58:18.890Z,31.03
2019-04-14T04:00:46.563Z,31.03
2019-04-14T04:03:12.881Z,30.37
2019-04-14T04:05:39.190Z,30.00
2019-04-14T04:08:05.376Z,29.80
2019-04-14T04:10:33.579Z,29.70
2019-04-14T04:12:59.770Z,29.20
2019-04-14T04:15:25.907Z,29.63
2019-04-14T04:17:53.943Z,28.50
2019-04-14T04:20:39.123Z,28.10
2019-04-14T04:23:07.503Z,29.13
2019-04-14T04:25:35.477Z,27.43
2019-04-14T04:28:03.781Z,28.80
2019-04-14T04:30:31.888Z,27.90
2019-04-14T04:33:09.384Z,29.20
2019-04-14T04:35:39.317Z,30.13
2019-04-14T04:38:10.167Z,28.47
2019-04-14T04:40:37.494Z,28.10
2019-04-14T04:43:04.108Z,28.10
2019-04-14T04:45:30.470Z,28.63
2019-04-14T04:47:57.709Z,30.17
2019-04-14T04:50:23.990Z,28.30
2019-04-14T04:52:50.277Z,29.23
2019-04-14T04:55:17.638Z,29.43
2019-04-14T04:57:44.001Z,29.53
2019-04-14T05:00:11.394Z,29.97
2019-04-14T05:02:37.893Z,28.73
2019-04-14T05:05:41.417Z,29.10
2019-04-14T05:08:08.662Z,29.10
2019-04-14T05:10:37.156Z,30.03
2019-04-14T05:13:05.335Z,30.37
2019-04-14T05:15:36.169Z,28.23
2019-04-14T05:18:02.798Z,28.33
2019-04-14T05:20:29.247Z,29.20
2019-04-14T05:22:55.342Z,29.20
2019-04-14T05:25:21.684Z,30.17
2019-04-14T05:27:47.851Z,29.40
2019-04-14T05:30:15.335Z,28.33
2019-04-14T05:32:41.563Z,28.80
2019-04-14T05:35:07.767Z,30.13
2019-04-14T05:37:33.890Z,27.87
2019-04-14T05:40:00.004Z,28.40
2019-04-14T05:42:27.477Z,28.20
2019-04-14T05:44:54.340Z,27.57
2019-04-14T05:47:20.450Z,27.60
2019-04-14T05:49:50.076Z,26.87
2019-04-14T05:52:14.926Z,27.17
2019-04-14T05:54:42.547Z,26.33
2019-04-14T05:57:08.856Z,26.17
2019-04-14T05:59:35.333Z,25.83
2019-04-14T06:02:02.600Z,26.33
2019-04-14T06:04:28.868Z,24.37
2019-04-14T06:06:54.979Z,24.97
2019-04-14T06:09:21.072Z,24.73
2019-04-14T06:11:47.304Z,24.43
2019-04-14T06:14:13.508Z,24.00
2019-04-14T06:16:39.761Z,23.90
2019-04-14T06:19:07.082Z,25.17
2019-04-14T06:21:33.473Z,23.43
2019-04-14T06:23:59.599Z,24.27
2019-04-14T06:26:25.896Z,23.83
2019-04-14T06:28:52.116Z,23.93
2019-04-14T06:31:37.019Z,23.27
2019-04-14T06:34:08.018Z,22.83
2019-04-14T06:36:42.028Z,21.33
2019-04-14T06:39:12.752Z,22.80
2019-04-14T06:41:39.045Z,22.17
2019-04-14T06:44:05.139Z,22.13
2019-04-14T06:46:31.266Z,22.63
2019-04-14T06:48:57.384Z,22.90
2019-04-14T06:51:23.513Z,20.63
2019-04-14T06:53:49.621Z,22.07
2019-04-14T06:56:15.821Z,22.63
2019-04-14T06:58:41.999Z,21.63
2019-04-14T07:01:09.181Z,20.33
2019-04-14T07:03:35.285Z,21.03
2019-04-14T07:06:01.522Z,21.93
2019-04-14T07:08:29.846Z,21.03
2019-04-14T07:10:55.732Z,21.13
2019-04-14T07:13:22.026Z,20.63
2019-04-14T07:15:48.452Z,20.30
2019-04-14T07:18:14.558Z,20.60
2019-04-14T07:20:40.679Z,20.73
2019-04-14T07:23:06.983Z,21.60
2019-04-14T07:25:33.514Z,19.70
2019-04-14T07:27:59.843Z,20.57
2019-04-14T07:30:42.899Z,20.80
2019-04-14T07:33:16.688Z,20.40
2019-04-14T07:35:45.942Z,21.23
2019-04-14T07:38:16.914Z,20.53
2019-04-14T07:40:57.244Z,21.47
2019-04-14T07:43:40.732Z,22.13
2019-04-14T07:46:17.613Z,21.50
2019-04-14T07:48:45.747Z,20.73
2019-04-14T07:51:30.727Z,20.17
2019-04-14T07:54:04.767Z,22.23
2019-04-14T07:56:48.102Z,22.50
2019-04-14T07:59:16.107Z,22.37
2019-04-14T08:01:59.233Z,22.47
2019-04-14T08:04:30.565Z,21.90
2019-04-14T08:06:56.952Z,23.00
2019-04-14T08:09:23.410Z,20.43
2019-04-14T08:11:49.521Z,21.20
2019-04-14T08:14:15.968Z,21.23
2019-04-14T08:16:42.363Z,21.50
2019-04-14T08:19:08.561Z,20.20
2019-04-14T08:21:34.921Z,19.87
2019-04-14T08:24:01.430Z,19.13
2019-04-14T08:26:27.781Z,19.97
2019-04-14T08:28:54.081Z,20.60
2019-04-14T08:31:20.421Z,19.93
2019-04-14T08:33:46.521Z,19.70
2019-04-14T08:36:12.815Z,19.53
2019-04-14T08:38:39.161Z,19.90
2019-04-14T08:41:05.400Z,19.93
2019-04-14T08:43:42.621Z,20.07
2019-04-14T08:46:19.852Z,19.93
2019-04-14T08:48:50.864Z,19.70
2019-04-14T08:51:19.007Z,20.40
2019-04-14T08:54:02.119Z,19.20
2019-04-14T08:56:46.667Z,19.80
2019-04-14T08:59:29.837Z,19.30
2019-04-14T09:01:57.824Z,19.57
2019-04-14T09:04:35.021Z,19.20
2019-04-14T09:07:14.989Z,18.43
2019-04-14T09:09:43.176Z,19.27
2019-04-14T09:12:15.737Z,20.37
2019-04-14T09:14:39.791Z,20.13
2019-04-14T09:17:05.912Z,19.20
2019-04-14T09:19:32.125Z,19.87
2019-04-14T09:21:58.407Z,19.87
2019-04-14T09:24:24.645Z,20.10
2019-04-14T09:26:50.965Z,19.90
2019-04-14T09:29:17.327Z,20.10
2019-04-14T09:31:43.849Z,20.23
2019-04-14T09:34:10.216Z,20.23
2019-04-14T09:36:36.398Z,20.43
2019-04-14T09:39:04.943Z,19.57
2019-04-14T09:41:32.157Z,19.97
2019-04-14T09:43:58.345Z,19.70
2019-04-14T09:46:24.675Z,20.93
2019-04-14T09:48:50.781Z,20.23
2019-04-14T09:51:17.070Z,20.10
2019-04-14T09:53:43.289Z,20.60
2019-04-14T09:56:09.377Z,19.90
2019-04-14T09:58:35.530Z,19.93
2019-04-14T10:01:01.845Z,20.23
2019-04-14T10:03:28.070Z,20.37
2019-04-14T10:05:54.205Z,21.17
2019-04-14T10:08:20.432Z,20.33
2019-04-14T10:10:46.778Z,19.97
2019-04-14T10:13:13.069Z,20.43
2019-04-14T10:15:39.196Z,20.57
2019-04-14T10:18:05.409Z,20.67
2019-04-14T10:20:31.866Z,19.63
2019-04-14T10:22:58.499Z,19.97
2019-04-14T10:25:24.632Z,20.13
2019-04-14T10:27:50.758Z,20.20
2019-04-14T10:30:17.069Z,20.33
2019-04-14T10:32:43.297Z,19.50
2019-04-14T10:35:09.514Z,20.23
2019-04-14T10:37:35.836Z,20.73
2019-04-14T10:40:06.071Z,19.80
2019-04-14T10:42:31.728Z,18.90
2019-04-14T10:44:58.249Z,18.93
2019-04-14T10:47:24.439Z,19.33
2019-04-14T10:49:50.737Z,20.53
2019-04-14T10:52:16.909Z,20.23
2019-04-14T10:54:43.177Z,20.10
2019-04-14T10:57:09.393Z,19.13
2019-04-14T10:59:35.618Z,19.70
2019-04-14T11:02:02.044Z,19.00
2019-04-14T11:04:28.371Z,19.93
2019-04-14T11:06:56.389Z,19.17
2019-04-14T11:09:22.645Z,18.67
2019-04-14T11:11:48.801Z,20.27
2019-04-14T11:14:15.140Z,20.10
2019-04-14T11:16:41.497Z,20.57
2019-04-14T11:19:07.699Z,20.13
2019-04-14T11:21:42.433Z,20.10
2019-04-14T11:24:02.430Z,19.17
2019-04-14T11:26:28.765Z,19.20
2019-04-14T11:28:55.001Z,19.10
2019-04-14T11:31:39.606Z,19.37
2019-04-14T11:34:06.534Z,18.90
2019-04-14T11:36:46.734Z,19.63
2019-04-14T11:39:14.862Z,19.80
2019-04-14T11:41:41.336Z,19.67
2019-04-14T11:44:07.975Z,19.57
2019-04-14T11:46:34.303Z,20.20
2019-04-14T11:49:00.542Z,20.13
2019-04-14T11:51:26.862Z,18.73
2019-04-14T11:53:53.117Z,19.97
2019-04-14T11:56:19.396Z,18.40
2019-04-14T11:58:45.660Z,18.80
2019-04-14T12:01:22.729Z,19.03
2019-04-14T12:04:05.896Z,19.40
2019-04-14T12:06:39.701Z,19.07
2019-04-14T12:09:10.492Z,18.43
2019-04-14T12:11:37.200Z,18.77
2019-04-14T12:14:04.299Z,19.53
2019-04-14T12:16:32.355Z,19.70
2019-04-14T12:18:59.580Z,18.73
2019-04-14T12:21:27.308Z,18.40
2019-04-14T12:23:54.442Z,19.20
2019-04-14T12:26:21.161Z,18.87
2019-04-14T12:28:47.855Z,18.37
2019-04-14T12:31:15.243Z,18.27
2019-04-14T12:33:41.728Z,18.90
2019-04-14T12:36:10.566Z,17.97
2019-04-14T12:38:36.801Z,18.87
2019-04-14T12:41:06.149Z,18.60
2019-04-14T12:43:37.018Z,17.67
2019-04-14T12:46:11.189Z,17.67
2019-04-14T12:48:56.180Z,17.03
2019-04-14T12:51:24.339Z,17.70
2019-04-14T12:53:50.620Z,17.47
2019-04-14T12:56:18.875Z,17.40
2019-04-14T12:58:51.068Z,18.67
2019-04-14T13:01:19.183Z,18.07
2019-04-14T13:03:45.501Z,16.97
2019-04-14T13:06:12.831Z,16.87
2019-04-14T13:08:39.007Z,17.90
2019-04-14T13:11:06.038Z,15.93
2019-04-14T13:13:32.449Z,15.80
2019-04-14T13:15:58.762Z,16.27
2019-04-14T13:18:25.056Z,15.80
2019-04-14T13:20:51.286Z,17.10
2019-04-14T13:23:17.506Z,16.13
2019-04-14T13:25:43.634Z,15.47
2019-04-14T13:28:10.053Z,16.13
2019-04-14T13:30:38.472Z,15.83
2019-04-14T13:33:04.713Z,16.57
2019-04-14T13:35:31.023Z,17.60
2019-04-14T13:37:57.269Z,15.13
2019-04-14T13:40:23.683Z,14.77
2019-04-14T13:42:50.068Z,15.83
2019-04-14T13:45:16.353Z,15.40
2019-04-14T13:47:42.536Z,14.40
2019-04-14T13:50:09.147Z,14.87
2019-04-14T13:52:45.974Z,15.37
2019-04-14T13:55:04.370Z,14.30
2019-04-14T13:57:30.780Z,14.67
2019-04-14T13:59:57.207Z,14.67
2019-04-14T14:02:23.580Z,14.77
2019-04-14T14:04:50.075Z,15.00
2019-04-14T14:07:16.663Z,14.07
2019-04-14T14:09:43.076Z,14.73
2019-04-14T14:12:26.514Z,14.57
2019-04-14T14:15:10.268Z,14.53
2019-04-14T14:17:53.440Z,15.90
2019-04-14T14:20:24.189Z,14.53
2019-04-14T14:23:10.742Z,15.03
2019-04-14T14:25:41.795Z,15.23
2019-04-14T14:28:08.168Z,14.83
2019-04-14T14:30:34.805Z,14.67
2019-04-14T14:33:01.139Z,15.70
2019-04-14T14:35:27.377Z,15.80
2019-04-14T14:37:53.503Z,14.90
2019-04-14T14:40:20.068Z,15.50
2019-04-14T14:42:46.472Z,15.17
2019-04-14T14:45:14.934Z,15.13
2019-04-14T14:47:43.093Z,14.03
2019-04-14T14:50:23.196Z,14.33
2019-04-14T14:52:49.609Z,14.60
2019-04-14T14:55:16.020Z,15.47
2019-04-14T14:57:42.590Z,14.80
2019-04-14T15:00:23.412Z,14.93
2019-04-14T15:02:49.638Z,15.00
2019-04-14T15:05:15.812Z,15.33
2019-04-14T15:07:42.144Z,14.83
2019-04-14T15:10:08.477Z,15.13
2019-04-14T15:12:35.792Z,14.77
2019-04-14T15:15:03.633Z,15.43
2019-04-14T15:17:30.015Z,15.20
2019-04-14T15:19:57.288Z,14.47
2019-04-14T15:22:23.504Z,15.40
2019-04-14T15:24:49.740Z,14.77
2019-04-14T15:27:15.975Z,14.40
2019-04-14T15:29:42.211Z,15.80
2019-04-14T15:32:08.559Z,15.17
2019-04-14T15:34:34.891Z,15.30
2019-04-14T15:37:01.266Z,14.83
2019-04-14T15:39:27.811Z,15.77
2019-04-14T15:41:54.261Z,15.50
2019-04-14T15:44:20.886Z,15.27
2019-04-14T15:46:47.407Z,14.60
2019-04-14T15:49:14.838Z,14.40
2019-04-14T15:51:41.094Z,15.00
2019-04-14T15:54:07.415Z,14.27
2019-04-14T15:56:52.226Z,14.70
2019-04-14T15:59:35.724Z,14.20
2019-04-14T16:02:10.032Z,16.60
2019-04-14T16:04:41.117Z,15.47
2019-04-14T16:07:12.983Z,15.70
2019-04-14T16:09:43.824Z,16.37
2019-04-14T16:12:14.861Z,15.10
2019-04-14T16:14:58.323Z,14.10
2019-04-14T16:17:43.358Z,12.97
2019-04-14T16:20:17.556Z,12.97
2019-04-14T16:22:43.875Z,13.50
2019-04-14T16:25:10.310Z,13.73
2019-04-14T16:27:38.549Z,14.17
2019-04-14T16:30:16.467Z,13.77
2019-04-14T16:32:44.690Z,13.73
2019-04-14T16:35:12.940Z,14.63
2019-04-14T16:37:39.241Z,14.87
2019-04-14T16:40:06.093Z,14.47
2019-04-14T16:42:32.312Z,15.40
2019-04-14T16:44:58.532Z,15.10
2019-04-14T16:47:24.919Z,17.60
2019-04-14T16:49:51.482Z,15.53
2019-04-14T16:52:19.751Z,16.00
2019-04-14T16:55:04.619Z,15.63
2019-04-14T16:57:50.876Z,16.90
2019-04-14T17:00:22.388Z,18.13
2019-04-14T17:02:50.164Z,16.97
2019-04-14T17:05:16.531Z,14.77
2019-04-14T17:07:42.769Z,15.80
2019-04-14T17:10:09.703Z,15.30
2019-04-14T17:12:36.045Z,13.93
2019-04-14T17:15:17.797Z,14.53
2019-04-14T17:18:02.432Z,16.53
2019-04-14T17:20:30.641Z,13.30
2019-04-14T17:23:15.481Z,15.70
2019-04-14T17:25:43.560Z,17.00
2019-04-14T17:28:17.691Z,14.33
2019-04-14T17:30:45.980Z,15.93
2019-04-14T17:33:17.229Z,16.30
2019-04-14T17:35:51.400Z,17.93
2019-04-14T17:38:19.584Z,14.17
2019-04-14T17:40:56.661Z,14.03
2019-04-14T17:43:34.948Z,14.93
2019-04-14T17:46:03.154Z,14.17
2019-04-14T17:48:46.329Z,12.60
2019-04-14T17:51:23.605Z,13.97
2019-04-14T17:54:06.993Z,16.77
2019-04-14T17:56:41.056Z,14.60
2019-04-14T17:59:18.391Z,13.73
2019-04-14T18:01:46.650Z,13.63
2019-04-14T18:04:19.573Z,14.17
2019-04-14T18:06:47.859Z,13.17
2019-04-14T18:09:16.217Z,13.00
2019-04-14T18:11:53.494Z,12.77
2019-04-14T18:14:21.610Z,12.97
2019-04-14T18:17:04.790Z,12.50
2019-04-14T18:19:32.844Z,10.93
2019-04-14T18:21:59.195Z,13.07
2019-04-14T18:24:25.428Z,11.70
2019-04-14T18:26:51.790Z,13.63
2019-04-14T18:29:26.383Z,11.43
2019-04-14T18:31:54.489Z,12.20
2019-04-14T18:34:31.789Z,10.97
2019-04-14T18:37:08.776Z,12.20
2019-04-14T18:39:49.871Z,11.73
2019-04-14T18:42:34.625Z,11.60
2019-04-14T18:45:12.030Z,12.17
2019-04-14T18:47:52.442Z,10.97
2019-04-14T18:50:23.701Z,11.75
2019-04-14T18:52:54.645Z,11.88
2019-04-14T18:55:40.382Z,12.10
2019-04-14T18:58:17.650Z,11.20
2019-04-14T19:00:55.050Z,10.97
2019-04-14T19:03:21.279Z,10.70
2019-04-14T19:05:47.597Z,13.00
2019-04-14T19:08:14.146Z,11.20
2019-04-14T19:10:42.590Z,12.27
2019-04-14T19:13:13.567Z,11.80
2019-04-14T19:15:47.674Z,13.13
2019-04-14T19:18:18.788Z,11.00
2019-04-14T19:20:46.820Z,10.83
2019-04-14T19:23:13.039Z,12.03
2019-04-14T19:25:39.244Z,11.17
2019-04-14T19:28:05.463Z,11.47
2019-04-14T19:30:31.735Z,11.93
2019-04-14T19:32:57.974Z,13.13
2019-04-14T19:35:26.801Z,12.77
2019-04-14T19:37:52.375Z,13.23
2019-04-14T19:40:18.709Z,12.53
2019-04-14T19:42:45.014Z,12.87
2019-04-14T19:45:11.330Z,13.27
2019-04-14T19:47:37.662Z,14.03
2019-04-14T19:50:04.571Z,15.17
2019-04-14T19:52:30.960Z,16.17
2019-04-14T19:54:57.236Z,14.87
2019-04-14T19:57:23.347Z,15.13
2019-04-14T19:59:49.601Z,20.00
2019-04-14T20:02:16.026Z,20.43
2019-04-14T20:04:42.370Z,18.30
2019-04-14T20:07:08.481Z,19.27
2019-04-14T20:09:34.755Z,18.77
2019-04-14T20:12:00.975Z,17.27
2019-04-14T20:14:27.370Z,18.37
2019-04-14T20:17:05.947Z,19.00
2019-04-14T20:19:40.275Z,20.30
2019-04-14T20:22:11.294Z,21.53
2019-04-14T20:24:42.396Z,18.10
2019-04-14T20:27:27.332Z,20.87
2019-04-14T20:29:55.564Z,22.40
2019-04-14T20:32:23.675Z,21.50
2019-04-14T20:34:50.137Z,21.90
2019-04-14T20:37:16.343Z,22.20
2019-04-14T20:39:42.536Z,24.03
2019-04-14T20:42:09.035Z,26.67
2019-04-14T20:44:35.256Z,35.30
2019-04-14T20:47:01.692Z,32.90
2019-04-14T20:49:29.044Z,43.00
2019-04-14T20:51:55.365Z,25.57
2019-04-14T20:54:21.598Z,24.60
2019-04-14T20:56:47.814Z,33.07
2019-04-14T20:59:13.905Z,32.17
2019-04-14T21:01:41.938Z,30.57
2019-04-14T21:04:16.085Z,25.97
2019-04-14T21:06:56.343Z,22.47
2019-04-14T21:09:30.480Z,23.97
2019-04-14T21:11:58.695Z,23.47
2019-04-14T21:14:26.721Z,23.67
2019-04-14T21:17:10.100Z,24.40
2019-04-14T21:19:39.199Z,26.40
2019-04-14T21:22:10.122Z,26.40
2019-04-14T21:24:43.939Z,24.43
2019-04-14T21:27:11.958Z,24.07
2019-04-14T21:29:42.865Z,25.23
2019-04-14T21:32:13.852Z,24.17
2019-04-14T21:34:44.816Z,24.63
2019-04-14T21:37:19.965Z,26.23
2019-04-14T21:39:48.098Z,25.50
2019-04-14T21:42:14.827Z,25.90
2019-04-14T21:44:41.150Z,25.97
2019-04-14T21:47:07.350Z,26.23
2019-04-14T21:49:33.682Z,25.57
2019-04-14T21:52:01.921Z,26.67
2019-04-14T21:54:28.212Z,26.00
2019-04-14T21:57:12.794Z,27.43
2019-04-14T21:59:57.679Z,27.47
2019-04-14T22:02:42.790Z,27.70
2019-04-14T22:05:27.600Z,26.87
2019-04-14T22:08:07.944Z,27.40
2019-04-14T22:10:36.104Z,26.63
2019-04-14T22:13:02.496Z,27.03
2019-04-14T22:15:28.807Z,26.83
2019-04-14T22:17:55.126Z,27.77
2019-04-14T22:20:21.437Z,26.67
2019-04-14T22:22:47.750Z,26.87
2019-04-14T22:25:14.076Z,26.90
2019-04-14T22:27:40.304Z,27.23
2019-04-14T22:30:07.337Z,26.57
2019-04-14T22:32:33.446Z,27.70
2019-04-14T22:34:59.671Z,26.43
2019-04-14T22:37:25.783Z,27.13
2019-04-14T22:39:51.876Z,26.57
2019-04-14T22:42:18.202Z,28.23
2019-04-14T22:44:44.496Z,30.03
2019-04-14T22:47:10.611Z,30.33
2019-04-14T22:49:36.796Z,29.67
2019-04-14T22:52:03.432Z,31.30
2019-04-14T22:54:29.529Z,30.33
2019-04-14T22:56:55.771Z,30.10
2019-04-14T22:59:21.982Z,30.83
2019-04-14T23:01:49.987Z,31.03
2019-04-14T23:04:18.090Z,33.80
2019-04-14T23:07:02.947Z,33.67
2019-04-14T23:09:31.073Z,34.97
2019-04-14T23:12:08.310Z,33.83
2019-04-14T23:14:48.458Z,35.43
2019-04-14T23:17:25.746Z,36.10
2019-04-14T23:19:56.876Z,36.30
2019-04-14T23:22:34.161Z,38.00
2019-04-14T23:25:00.475Z,37.17
2019-04-14T23:27:26.593Z,37.60
2019-04-14T23:29:52.840Z,38.13
2019-04-14T23:32:19.031Z,38.03
2019-04-14T23:34:45.141Z,39.13
2019-04-14T23:37:11.448Z,39.63
2019-04-14T23:39:37.589Z,38.43
2019-04-14T23:42:04.001Z,40.33
2019-04-14T23:44:30.080Z,42.43
2019-04-14T23:46:56.375Z,40.03
2019-04-14T23:49:22.682Z,40.37
2019-04-14T23:51:48.972Z,41.20
2019-04-14T23:54:15.076Z,40.57
2019-04-14T23:56:41.291Z,40.73
2019-04-14T23:59:07.526Z,41.37
